Coates, United Kingdom
Current Conditions -  °F | °C
As of 4:58 AM on Saturday 25 Oct 2014 (Local Time) from EGVA Reporting Station
Overcast Overcast  
Wind Chill: 39°   Ceiling: 4300
Heat Index: 42°   Visibility: 6mi
Dew Point: 42°   Wind: 5mph
Humidity: 99%   Direction: 250°WSW
Pressure: 30"   Gusts: NA
Location:  51.71°N, 2.03°W
Report Text: EGVA 250358Z AUTO 25004KT 9999 OVC043 06/06 A3000 RMK AO2 SLP163 P1835 T00560055
Loading
Personal Weather Stations






























Interactive Weather Map
Tropical Storm Tracking
New forecast layout! Learn more

10-Day Weather Forecast

Advertisements
Track Severe Weather on mobile